Time;durP1;ratioP1;P1;durP2;ratioP2;P2;SDS_P1;SDS_P2;PMS_P1;PMS_P2;Temp;Humidity;BMP_temperature;BMP_pressure;BME280_temperature;BME280_humidity;BME280_pressure;Samples;Min_cycle;Max_cycle;Signal;HPM_P1;HPM_P2
2022/09/28 00:00:05;;;;;;;1.53;0.90;;;14.20;76.80;;;-142.21;100.00;112049.66;5053869;28;20448;-69
2022/09/28 00:02:33;;;;;;;1.00;0.90;;;14.20;77.00;;;-142.21;100.00;112049.66;5053083;28;20479;-69
2022/09/28 00:05:01;;;;;;;1.63;0.73;;;14.30;77.00;;;-142.21;100.00;112049.66;5053164;28;20455;-69
2022/09/28 00:07:28;;;;;;;1.93;0.80;;;14.30;77.10;;;-142.21;100.00;112049.66;5052599;28;20440;-69
2022/09/28 00:09:56;;;;;;;1.70;1.10;;;14.30;77.00;;;-142.21;100.00;112049.66;5053707;28;20920;-69
2022/09/28 00:12:24;;;;;;;1.10;1.00;;;14.30;77.20;;;-142.21;100.00;112049.66;5052590;28;20562;-69
2022/09/28 00:14:51;;;;;;;1.23;0.90;;;14.20;77.80;;;-142.21;100.00;112049.66;5053564;28;20510;-69
2022/09/28 00:17:21;;;;;;;0.93;0.80;;;14.20;78.30;;;-142.21;100.00;112049.66;5049425;28;20455;-69
2022/09/28 00:19:48;;;;;;;1.30;0.87;;;14.20;78.30;;;-142.21;100.00;112049.66;5047851;28;20453;-69
2022/09/28 00:22:15;;;;;;;1.63;0.80;;;14.10;78.80;;;-142.21;100.00;112049.66;5052948;28;20506;-68
2022/09/28 00:24:43;;;;;;;0.60;0.60;;;14.10;79.00;;;-142.21;100.00;112049.66;5052804;28;20476;-69
2022/09/28 00:27:11;;;;;;;1.33;1.07;;;14.10;79.20;;;-142.21;100.00;112049.66;5050189;28;20528;-69
2022/09/28 00:29:39;;;;;;;2.30;1.20;;;14.10;79.60;;;-142.21;100.00;112049.66;5045403;28;20530;-69
2022/09/28 00:32:12;;;;;;;0.93;0.87;;;14.10;79.80;;;-142.21;100.00;112049.66;5053073;28;20463;-68
2022/09/28 00:34:44;;;;;;;1.10;1.00;;;14.10;80.00;;;-142.21;100.00;112049.66;5052468;28;20471;-69
2022/09/28 00:37:13;;;;;;;2.53;1.10;;;14.10;79.70;;;-142.21;100.00;112049.66;5052220;28;20514;-69
2022/09/28 00:39:42;;;;;;;2.47;1.00;;;14.10;79.70;;;-142.21;100.00;112049.66;5052741;28;20945;-69
2022/09/28 00:42:16;;;;;;;1.60;0.93;;;14.10;80.00;;;-142.21;100.00;112049.66;5050968;28;20539;-69
2022/09/28 00:44:50;;;;;;;2.07;1.20;;;14.10;80.10;;;-142.21;100.00;112049.66;5052219;28;20428;-69
2022/09/28 00:47:48;;;;;;;1.23;1.10;;;14.10;80.30;;;-142.21;100.00;112049.66;5051995;28;20781;-69
2022/09/28 00:50:24;;;;;;;3.60;1.50;;;14.10;80.50;;;-142.21;100.00;112049.66;5052776;28;20533;-68
2022/09/28 00:53:01;;;;;;;2.03;0.97;;;14.10;80.60;;;-142.21;100.00;112049.66;5052880;28;20440;-68
2022/09/28 00:55:37;;;;;;;4.53;1.47;;;14.10;80.70;;;-142.21;100.00;112049.66;5037567;28;20474;-69
2022/09/28 00:58:09;;;;;;;3.00;1.20;;;14.10;80.90;;;-142.21;100.00;112049.66;5050876;28;21013;-70
2022/09/28 01:00:39;;;;;;;3.17;1.30;;;14.10;81.10;;;-142.21;100.00;112049.66;5052264;28;20456;-68
2022/09/28 01:03:08;;;;;;;1.63;1.03;;;14.00;81.40;;;-142.21;100.00;112049.66;5047677;28;20474;-69
2022/09/28 01:05:36;;;;;;;3.97;1.00;;;14.10;81.40;;;-142.21;100.00;112049.66;5044248;28;20456;-69
2022/09/28 01:08:05;;;;;;;2.73;1.10;;;14.10;81.70;;;-142.21;100.00;112049.66;5051119;28;20539;-69
2022/09/28 01:10:33;;;;;;;1.83;0.93;;;14.20;81.90;;;-142.21;100.00;112049.66;5052008;28;20452;-69
2022/09/28 01:13:00;;;;;;;1.53;1.07;;;14.20;81.90;;;-142.21;100.00;112049.66;5053084;28;20448;-68
2022/09/28 01:15:29;;;;;;;1.40;1.13;;;14.20;82.00;;;-142.21;100.00;112049.66;5050931;28;20510;-69
2022/09/28 01:18:10;;;;;;;1.40;1.17;;;14.20;82.30;;;-142.21;100.00;112049.66;5051712;28;20449;-69
2022/09/28 01:20:57;;;;;;;4.57;1.30;;;14.10;82.70;;;-142.21;100.00;112049.66;5051449;28;20443;-70
2022/09/28 01:24:20;;;;;;;1.13;1.03;;;14.10;83.20;;;-142.21;100.00;112049.66;5052061;28;20439;-70
2022/09/28 01:27:12;;;;;;;2.07;1.13;;;14.10;83.50;;;-142.21;100.00;112049.66;5043978;28;20433;-69
2022/09/28 01:29:51;;;;;;;2.77;1.20;;;14.20;84.30;;;-142.21;100.00;112049.66;5052124;28;20455;-70
2022/09/28 01:32:33;;;;;;;2.67;1.27;;;14.20;83.80;;;-142.21;100.00;112049.66;5035939;28;20495;-70
2022/09/28 01:35:07;;;;;;;3.03;1.70;;;14.20;84.40;;;-142.21;100.00;112049.66;5053353;28;20471;-69
2022/09/28 01:37:50;;;;;;;3.57;1.40;;;14.10;84.80;;;-142.21;100.00;112049.66;5059943;28;20447;-70
2022/09/28 01:40:21;;;;;;;3.63;1.67;;;14.10;85.00;;;-142.21;100.00;112049.66;5055176;28;20429;-70
2022/09/28 01:42:58;;;;;;;3.77;1.43;;;14.10;85.70;;;-142.21;100.00;112049.66;5062482;28;20443;-69
2022/09/28 01:45:32;;;;;;;1.47;1.17;;;14.00;86.30;;;-142.21;100.00;112049.66;5058175;28;20451;-69
2022/09/28 01:48:06;;;;;;;2.37;1.50;;;14.00;86.50;;;-142.21;100.00;112049.66;5051660;28;20440;-70
2022/09/28 01:50:40;;;;;;;1.70;1.50;;;14.00;86.30;;;-142.21;100.00;112049.66;5051483;28;20439;-69
2022/09/28 01:53:18;;;;;;;3.47;1.60;;;14.10;86.90;;;-142.21;100.00;112049.66;5051865;28;20429;-70
2022/09/28 01:55:50;;;;;;;3.30;1.70;;;14.10;86.60;;;-142.21;100.00;112049.66;5037041;28;20564;-69
2022/09/28 01:58:28;;;;;;;3.03;1.50;;;14.00;86.70;;;-142.21;100.00;112049.66;5046591;28;20806;-69
2022/09/28 02:01:02;;;;;;;6.10;2.10;;;14.00;88.20;;;-142.21;100.00;112049.66;5051793;28;20444;-69
2022/09/28 02:03:37;;;;;;;1.70;1.40;;;14.00;87.40;;;-142.21;100.00;112049.66;5051334;28;20427;-69
2022/09/28 02:06:12;;;;;;;3.50;1.53;;;14.00;88.30;;;-142.21;100.00;112049.66;5051736;28;20424;-70
2022/09/28 02:08:47;;;;;;;4.60;1.80;;;14.00;87.60;;;-142.21;100.00;112049.66;5031307;28;20487;-69
2022/09/28 02:11:19;;;;;;;2.13;1.50;;;14.00;88.00;;;-142.21;100.00;112049.66;5051919;28;20432;-69
2022/09/28 02:13:54;;;;;;;4.17;1.47;;;14.00;88.20;;;-142.21;100.00;112049.66;5035751;28;20444;-70
2022/09/28 02:16:32;;;;;;;2.33;1.43;;;14.00;88.20;;;-142.21;100.00;112049.66;5039394;28;20468;-68
2022/09/28 02:18:59;;;;;;;2.63;1.13;;;14.00;88.40;;;-142.21;100.00;112049.66;5050905;28;20804;-69
2022/09/28 02:21:38;;;;;;;2.30;1.17;;;14.00;87.50;;;-142.21;100.00;112049.66;5051002;28;20527;-69
2022/09/28 02:24:15;;;;;;;2.27;1.00;;;14.00;86.80;;;-142.21;100.00;112049.66;5050427;28;20440;-70
2022/09/28 02:26:48;;;;;;;2.10;1.30;;;14.00;87.30;;;-142.21;100.00;112049.66;5035245;28;20983;-70
2022/09/28 02:29:17;;;;;;;2.20;1.20;;;14.00;87.50;;;-142.21;100.00;112049.66;5039687;28;20451;-70
2022/09/28 02:31:44;;;;;;;1.40;1.10;;;14.00;87.50;;;-142.21;100.00;112049.66;5051187;28;20475;-70
2022/09/28 02:34:11;;;;;;;1.30;1.10;;;14.00;87.10;;;-142.21;100.00;112049.66;5051424;28;20448;-70
2022/09/28 02:36:38;;;;;;;2.17;1.13;;;14.00;87.40;;;-142.21;100.00;112049.66;5050353;28;20502;-70
2022/09/28 02:39:05;;;;;;;1.57;1.10;;;14.00;87.40;;;-142.21;100.00;112049.66;5050674;28;20444;-70
2022/09/28 02:41:54;;;;;;;3.10;1.20;;;14.10;87.30;;;-142.21;100.00;112049.66;5050661;28;20448;-70
2022/09/28 02:44:57;;;;;;;1.73;1.17;;;14.10;87.00;;;-142.21;100.00;112049.66;5047485;28;20957;-69
2022/09/28 02:47:42;;;;;;;1.80;0.97;;;14.10;87.10;;;-142.21;100.00;112049.66;5039117;28;20448;-69
2022/09/28 02:50:25;;;;;;;1.57;1.07;;;14.20;86.70;;;-142.21;100.00;112049.66;5051059;28;20919;-70
2022/09/28 02:53:31;;;;;;;3.27;1.17;;;14.20;86.30;;;-142.21;100.00;112049.66;5051283;28;20435;-70
2022/09/28 02:56:25;;;;;;;1.63;0.93;;;14.20;86.70;;;-142.21;100.00;112049.66;5031431;28;20507;-70
2022/09/28 02:59:09;;;;;;;1.40;1.00;;;14.10;86.70;;;-142.21;100.00;112049.66;5049052;28;20792;-70
2022/09/28 03:01:52;;;;;;;2.37;0.70;;;14.20;86.30;;;-142.21;100.00;112049.66;5050221;28;21009;-70
2022/09/28 03:04:37;;;;;;;1.00;0.90;;;14.10;86.20;;;-142.21;100.00;112049.66;5049727;28;20950;-71
2022/09/28 03:07:14;;;;;;;4.50;1.20;;;14.10;86.70;;;-142.21;100.00;112049.66;5013248;28;20444;-70
2022/09/28 03:09:50;;;;;;;1.57;0.90;;;14.10;86.40;;;-142.21;100.00;112049.66;5050408;28;20840;-70
2022/09/28 03:12:22;;;;;;;0.83;0.83;;;14.10;86.40;;;-142.21;100.00;112049.66;5050822;28;20431;-69
2022/09/28 03:15:05;;;;;;;1.30;0.93;;;14.20;86.00;;;-142.21;100.00;112049.66;5051349;28;20440;-69
2022/09/28 03:17:34;;;;;;;1.53;0.97;;;14.30;85.50;;;-142.21;100.00;112049.66;5044136;28;20440;-69
2022/09/28 03:20:02;;;;;;;1.03;0.90;;;14.30;86.10;;;-142.21;100.00;112049.66;5031253;28;20528;-69
2022/09/28 03:22:29;;;;;;;2.37;1.20;;;14.30;85.10;;;-142.21;100.00;112049.66;5032966;28;20448;-69
2022/09/28 03:24:56;;;;;;;1.70;0.93;;;14.40;85.20;;;-142.21;100.00;112049.66;5035111;28;20484;-70
2022/09/28 03:27:23;;;;;;;2.40;1.10;;;14.40;85.40;;;-142.21;100.00;112049.66;5037688;28;20446;-70
2022/09/28 03:29:50;;;;;;;2.20;1.10;;;14.40;85.20;;;-142.21;100.00;112049.66;5056178;28;20440;-69
2022/09/28 03:32:17;;;;;;;2.40;1.20;;;14.40;85.00;;;-142.21;100.00;112049.66;5054496;28;20462;-69
2022/09/28 03:34:46;;;;;;;1.63;0.97;;;14.30;86.00;;;-142.21;100.00;112049.66;5055042;28;20440;-69
2022/09/28 03:37:13;;;;;;;0.77;0.77;;;14.30;85.00;;;-142.21;100.00;112049.66;5053829;28;20483;-69
2022/09/28 03:39:42;;;;;;;1.93;1.00;;;14.40;85.10;;;-142.21;100.00;112049.66;5053654;28;20448;-69
2022/09/28 03:42:09;;;;;;;1.23;0.80;;;14.40;84.70;;;-142.21;100.00;112049.66;5053930;28;20448;-70
2022/09/28 03:44:37;;;;;;;1.53;1.10;;;14.40;85.00;;;-142.21;100.00;112049.66;5053745;28;20452;-70
2022/09/28 03:47:04;;;;;;;0.93;0.80;;;14.40;84.90;;;-142.21;100.00;112049.66;5053115;28;20440;-70
2022/09/28 03:49:31;;;;;;;1.40;1.00;;;14.40;84.70;;;-142.21;100.00;112049.66;5053969;28;20444;-69
2022/09/28 03:51:59;;;;;;;0.90;0.90;;;14.40;84.70;;;-142.21;100.00;112049.66;5053691;28;20945;-70
2022/09/28 03:54:26;;;;;;;1.00;0.97;;;14.40;84.90;;;-142.21;100.00;112049.66;5053312;28;20454;-70
2022/09/28 03:56:53;;;;;;;1.10;0.93;;;14.30;84.90;;;-142.21;100.00;112049.66;5053549;28;20521;-70
2022/09/28 03:59:21;;;;;;;1.00;0.97;;;14.30;84.70;;;-142.21;100.00;112049.66;5052314;28;20453;-70
2022/09/28 04:01:49;;;;;;;1.13;1.00;;;14.30;85.00;;;-142.21;100.00;112049.66;5043975;28;20482;-69
2022/09/28 04:04:17;;;;;;;1.37;0.97;;;14.30;84.80;;;-142.21;100.00;112049.66;5054038;28;20534;-69
2022/09/28 04:06:44;;;;;;;2.37;0.90;;;14.30;84.70;;;-142.21;100.00;112049.66;5053403;28;20571;-69
2022/09/28 04:09:13;;;;;;;2.97;1.07;;;14.30;84.70;;;-142.21;100.00;112049.66;5053425;28;20524;-70
2022/09/28 04:11:40;;;;;;;0.97;0.80;;;14.30;84.80;;;-142.21;100.00;112049.66;5052809;28;20563;-70
2022/09/28 04:14:07;;;;;;;3.33;0.90;;;14.30;84.70;;;-142.21;100.00;112049.66;5049527;28;20807;-69
2022/09/28 04:16:34;;;;;;;1.50;1.03;;;14.30;84.50;;;-142.21;100.00;112049.66;5051832;28;20486;-69
2022/09/28 04:19:02;;;;;;;1.87;1.10;;;14.30;84.70;;;-142.21;100.00;112049.66;5053446;28;20577;-69
2022/09/28 04:21:30;;;;;;;1.23;0.90;;;14.20;84.60;;;-142.21;100.00;112049.66;5052395;28;20452;-69
2022/09/28 04:23:58;;;;;;;1.37;1.20;;;14.20;84.90;;;-142.21;100.00;112049.66;5053842;28;20457;-70
2022/09/28 04:26:27;;;;;;;1.87;1.17;;;14.10;85.10;;;-142.21;100.00;112049.66;5051992;28;20483;-70
2022/09/28 04:31:42;;;;;;;2.83;1.20;;;14.00;85.90;;;-142.21;100.00;112049.66;5040691;28;20464;-69
2022/09/28 04:34:09;;;;;;;1.07;1.00;;;13.90;86.10;;;-142.21;100.00;112049.66;5051254;28;20480;-69
2022/09/28 04:36:36;;;;;;;1.93;1.00;;;13.90;86.20;;;-142.21;100.00;112049.66;5037523;28;20914;-69
2022/09/28 04:39:04;;;;;;;1.30;1.20;;;14.00;86.10;;;-142.21;100.00;112049.66;5053388;28;21011;-69
2022/09/28 04:41:32;;;;;;;4.50;1.30;;;14.00;85.90;;;-142.21;100.00;112049.66;5050515;28;20476;-69
2022/09/28 04:43:59;;;;;;;1.27;1.17;;;13.90;86.00;;;-142.21;100.00;112049.66;5053577;28;20445;-69
2022/09/28 04:46:27;;;;;;;0.93;0.87;;;13.90;86.20;;;-142.21;100.00;112049.66;5052504;28;20471;-69
2022/09/28 04:48:54;;;;;;;1.47;1.33;;;14.00;86.40;;;-142.21;100.00;112049.66;5053180;28;20530;-69
2022/09/28 04:51:21;;;;;;;3.53;1.30;;;14.00;86.40;;;-142.21;100.00;112049.66;5040699;28;20459;-69
2022/09/28 04:53:48;;;;;;;3.43;1.70;;;14.00;86.30;;;-142.21;100.00;112049.66;5038964;28;20850;-69
2022/09/28 04:56:18;;;;;;;2.07;1.23;;;14.00;86.30;;;-142.21;100.00;112049.66;5033487;28;20860;-69
2022/09/28 04:58:46;;;;;;;3.17;1.63;;;14.00;86.10;;;-142.21;100.00;112049.66;5032437;28;20503;-68
2022/09/28 05:01:16;;;;;;;2.97;2.10;;;14.10;85.90;;;-142.21;100.00;112049.66;5043844;28;20448;-69
2022/09/28 05:03:44;;;;;;;2.80;1.70;;;14.10;86.00;;;-142.21;100.00;112049.66;5052192;28;20516;-68
2022/09/28 05:06:15;;;;;;;2.03;1.40;;;14.10;85.70;;;-142.21;100.00;112049.66;5052783;28;20962;-70
2022/09/28 05:08:45;;;;;;;2.83;1.57;;;14.10;85.70;;;-142.21;100.00;112049.66;5052509;28;20756;-69
2022/09/28 05:11:14;;;;;;;2.67;1.67;;;14.10;85.50;;;-142.21;100.00;112049.66;5051647;28;20546;-69
2022/09/28 05:13:44;;;;;;;2.33;1.40;;;14.10;85.50;;;-142.21;100.00;112049.66;5052552;28;20482;-69
2022/09/28 05:16:15;;;;;;;2.67;1.60;;;14.10;85.70;;;-142.21;100.00;112049.66;5052541;28;20488;-67
2022/09/28 05:18:42;;;;;;;2.03;1.60;;;14.10;85.60;;;-142.21;100.00;112049.66;5051809;28;20499;-67
2022/09/28 05:21:12;;;;;;;3.50;2.00;;;14.10;85.70;;;-142.21;100.00;112049.66;5051652;28;20941;-67
2022/09/28 05:23:39;;;;;;;2.50;1.63;;;14.10;85.60;;;-142.21;100.00;112049.66;5051349;28;20436;-67
2022/09/28 05:26:07;;;;;;;3.20;1.70;;;14.10;85.40;;;-142.21;100.00;112049.66;5051293;28;20536;-68
2022/09/28 05:28:34;;;;;;;2.93;1.70;;;14.00;85.80;;;-142.21;100.00;112049.66;5052005;28;20452;-70
2022/09/28 05:31:04;;;;;;;4.07;2.20;;;13.90;86.20;;;-142.21;100.00;112049.66;5036673;28;21026;-69
2022/09/28 05:33:33;;;;;;;2.60;1.70;;;13.80;86.60;;;-142.21;100.00;112049.66;5038814;28;20441;-70
2022/09/28 05:36:04;;;;;;;2.90;2.17;;;13.80;86.90;;;-142.21;100.00;112049.66;5052366;28;20535;-70
2022/09/28 05:38:33;;;;;;;4.97;2.17;;;13.70;87.30;;;-142.21;100.00;112049.66;5051755;28;20486;-70
2022/09/28 05:41:00;;;;;;;2.40;2.10;;;13.80;87.50;;;-142.21;100.00;112049.66;5037093;28;20441;-70
2022/09/28 05:43:28;;;;;;;3.80;2.20;;;13.80;87.30;;;-142.21;100.00;112049.66;5031860;28;20453;-70
2022/09/28 05:45:55;;;;;;;4.37;2.40;;;13.90;87.30;;;-142.21;100.00;112049.66;5040731;28;20451;-70
2022/09/28 05:48:22;;;;;;;3.30;2.33;;;13.80;87.00;;;-142.21;100.00;112049.66;5052384;28;20496;-70
2022/09/28 05:50:54;;;;;;;4.90;2.50;;;13.80;87.50;;;-142.21;100.00;112049.66;5050451;28;20479;-70
2022/09/28 05:53:22;;;;;;;4.07;2.63;;;13.80;87.70;;;-142.21;100.00;112049.66;5051754;28;20424;-70
2022/09/28 05:55:49;;;;;;;5.33;2.70;;;13.90;87.60;;;-142.21;100.00;112049.66;5049683;28;20444;-70
2022/09/28 05:58:17;;;;;;;2.70;2.30;;;13.90;87.30;;;-142.21;100.00;112049.66;5051415;28;20490;-70
2022/09/28 06:00:44;;;;;;;3.57;2.40;;;14.00;87.20;;;-142.21;100.00;112049.66;5040189;28;20460;-70
2022/09/28 06:03:13;;;;;;;4.70;2.37;;;14.10;86.90;;;-142.21;100.00;112049.66;5051592;28;20515;-70
2022/09/28 06:05:44;;;;;;;2.73;2.10;;;14.10;86.80;;;-142.21;100.00;112049.66;5046586;28;20809;-70
2022/09/28 06:08:13;;;;;;;3.27;2.27;;;14.10;86.50;;;-142.21;100.00;112049.66;5032029;28;20422;-70
2022/09/28 06:10:41;;;;;;;2.93;2.00;;;14.20;86.50;;;-142.21;100.00;112049.66;5031352;28;20531;-70
2022/09/28 06:13:09;;;;;;;3.37;2.30;;;14.10;87.20;;;-142.21;100.00;112049.66;5046862;28;20864;-69
2022/09/28 06:15:37;;;;;;;4.57;2.33;;;14.10;86.30;;;-142.21;100.00;112049.66;5048335;28;20452;-69
2022/09/28 06:18:07;;;;;;;4.87;2.40;;;14.20;86.40;;;-142.21;100.00;112049.66;5036051;28;20487;-70
2022/09/28 06:20:37;;;;;;;4.20;2.70;;;14.20;86.40;;;-142.21;100.00;112049.66;5050907;28;20440;-70
2022/09/28 06:23:04;;;;;;;3.23;2.37;;;14.20;86.10;;;-142.21;100.00;112049.66;5062214;28;20530;-70
2022/09/28 06:25:33;;;;;;;4.90;2.87;;;14.30;86.20;;;-142.21;100.00;112049.66;5051191;28;20868;-70
2022/09/28 06:28:02;;;;;;;3.70;2.27;;;14.30;85.70;;;-142.21;100.00;112049.66;5051642;28;20445;-70
2022/09/28 06:30:33;;;;;;;4.77;2.63;;;14.30;85.80;;;-142.21;100.00;112049.66;5050626;28;20546;-70
2022/09/28 06:33:02;;;;;;;3.03;2.20;;;14.20;86.20;;;-142.21;100.00;112049.66;5051826;28;20451;-69
2022/09/28 06:35:31;;;;;;;4.03;2.50;;;14.20;86.40;;;-142.21;100.00;112049.66;5050680;28;20437;-70
2022/09/28 06:38:00;;;;;;;5.90;2.77;;;14.30;86.30;;;-142.21;100.00;112049.66;5051226;28;20480;-69
2022/09/28 06:40:27;;;;;;;4.23;2.27;;;14.30;86.00;;;-142.21;100.00;112049.66;5049236;28;20528;-70
2022/09/28 06:42:58;;;;;;;3.20;2.47;;;14.30;85.70;;;-142.21;100.00;112049.66;5050572;28;20448;-70
2022/09/28 06:45:28;;;;;;;4.40;2.70;;;14.40;85.90;;;-142.21;100.00;112049.66;5049811;28;20507;-70
2022/09/28 06:47:57;;;;;;;7.57;2.43;;;14.50;85.40;;;-142.21;100.00;112049.66;5052240;28;20441;-70
2022/09/28 06:50:25;;;;;;;6.73;2.43;;;14.40;85.20;;;-142.21;100.00;112049.66;5049109;28;20445;-70
2022/09/28 06:52:55;;;;;;;4.17;2.33;;;14.50;86.00;;;-142.21;100.00;112049.66;5030660;28;20449;-70
2022/09/28 06:55:23;;;;;;;3.57;2.37;;;14.40;84.70;;;-142.21;100.00;112049.66;5032921;28;20445;-70
2022/09/28 06:57:59;;;;;;;2.60;1.90;;;14.40;84.50;;;-142.21;100.00;112049.66;5053339;28;20480;-70
2022/09/28 07:00:27;;;;;;;4.93;2.10;;;14.40;84.40;;;-142.21;100.00;112049.66;5053525;28;20622;-69
2022/09/28 07:02:54;;;;;;;3.63;2.47;;;14.30;84.50;;;-142.21;100.00;112049.66;5054848;28;20487;-70
2022/09/28 07:05:26;;;;;;;3.80;2.20;;;14.20;85.30;;;-142.21;100.00;112049.66;5053672;28;20448;-69
2022/09/28 07:07:55;;;;;;;3.43;2.10;;;14.30;84.30;;;-142.21;100.00;112049.66;5054569;28;20444;-69
2022/09/28 07:10:23;;;;;;;5.47;2.23;;;14.20;84.40;;;-142.21;100.00;112049.66;5053647;28;20471;-69
2022/09/28 07:12:51;;;;;;;4.27;2.40;;;14.20;84.90;;;-142.21;100.00;112049.66;5049928;28;20455;-69
2022/09/28 07:15:20;;;;;;;3.07;2.10;;;14.20;84.50;;;-142.21;100.00;112049.66;5052535;28;20443;-68
2022/09/28 07:17:48;;;;;;;2.70;1.90;;;14.20;84.70;;;-142.21;100.00;112049.66;5049954;28;20480;-69
2022/09/28 07:20:15;;;;;;;3.20;2.30;;;14.20;84.70;;;-142.21;100.00;112049.66;5055070;28;20494;-69
2022/09/28 07:22:43;;;;;;;5.73;2.90;;;14.30;84.90;;;-142.21;100.00;112049.66;5042979;28;20578;-68
2022/09/28 07:25:11;;;;;;;5.63;2.50;;;14.40;84.80;;;-142.21;100.00;112049.66;5054995;28;20448;-69
2022/09/28 07:27:38;;;;;;;4.73;2.50;;;14.40;83.80;;;-142.21;100.00;112049.66;5048325;28;20472;-69
2022/09/28 07:30:07;;;;;;;3.90;2.30;;;14.50;84.40;;;-142.21;100.00;112049.66;5054683;28;20444;-68
2022/09/28 07:32:36;;;;;;;5.90;2.70;;;14.50;83.30;;;-142.21;100.00;112049.66;5053632;28;20531;-69
2022/09/28 07:35:06;;;;;;;4.20;2.10;;;14.50;83.00;;;-142.21;100.00;112049.66;5054691;28;20844;-69
2022/09/28 07:37:34;;;;;;;3.40;2.17;;;14.50;84.70;;;-142.21;100.00;112049.66;5054131;28;20479;-69
2022/09/28 07:42:46;;;;;;;5.47;2.20;;;14.70;82.50;;;-142.21;100.00;112049.66;5053587;28;20434;-69
2022/09/28 07:45:14;;;;;;;3.10;2.27;;;14.90;83.50;;;-142.21;100.00;112049.66;5054414;28;21028;-69
2022/09/28 07:47:42;;;;;;;4.67;2.30;;;14.90;81.40;;;-142.21;100.00;112049.66;5053628;28;20452;-70
2022/09/28 07:50:10;;;;;;;4.13;2.20;;;15.10;81.20;;;-142.21;100.00;112049.66;5065898;28;20531;-69
2022/09/28 07:52:37;;;;;;;6.80;2.43;;;15.20;81.20;;;-142.21;100.00;112049.66;5053527;28;20538;-69
2022/09/28 07:55:06;;;;;;;5.17;2.20;;;15.30;81.30;;;-142.21;100.00;112049.66;5050466;28;20528;-69
2022/09/28 07:57:34;;;;;;;4.03;2.53;;;15.40;79.50;;;-142.21;100.00;112049.66;5053217;28;20523;-69
2022/09/28 08:00:04;;;;;;;2.93;2.10;;;15.50;80.00;;;-142.21;100.00;112049.66;5040994;28;20453;-69
2022/09/28 08:02:32;;;;;;;2.33;1.97;;;15.60;80.00;;;-142.21;100.00;112049.66;5046154;28;20534;-69
2022/09/28 08:05:03;;;;;;;4.23;2.20;;;15.80;80.30;;;-142.21;100.00;112049.66;5052802;28;20948;-68
2022/09/28 08:07:31;;;;;;;2.83;1.90;;;15.90;78.60;;;-142.21;100.00;112049.66;5053598;28;20433;-70
2022/09/28 08:09:58;;;;;;;2.37;1.90;;;16.00;78.10;;;-142.21;100.00;112049.66;5053710;28;20831;-69
2022/09/28 08:12:25;;;;;;;4.23;2.43;;;16.00;77.10;;;-142.21;100.00;112049.66;5053550;28;21009;-69
2022/09/28 08:14:52;;;;;;;4.00;1.73;;;16.00;77.50;;;-142.21;100.00;112049.66;5052941;28;20442;-69
2022/09/28 08:17:19;;;;;;;3.87;1.90;;;16.10;77.30;;;-142.21;100.00;112049.66;5054008;28;20820;-69
2022/09/28 08:22:33;;;;;;;3.17;1.67;;;16.00;76.30;;;-142.21;100.00;112049.66;5053856;28;20511;-70
2022/09/28 08:25:00;;;;;;;3.23;2.00;;;16.00;77.30;;;-142.21;100.00;112049.66;5053579;28;20535;-71
2022/09/28 08:27:27;;;;;;;4.53;1.80;;;15.90;76.30;;;-142.21;100.00;112049.66;5053153;28;20523;-71
2022/09/28 08:29:55;;;;;;;2.50;1.80;;;15.90;76.90;;;-142.21;100.00;112049.66;5053440;28;20531;-70
2022/09/28 08:32:23;;;;;;;4.37;2.27;;;15.90;76.40;;;-142.21;100.00;112049.66;5053001;28;21003;-73
2022/09/28 08:34:50;;;;;;;4.27;2.63;;;15.90;75.10;;;-142.21;100.00;112049.66;5052846;28;20537;-75
2022/09/28 08:37:18;;;;;;;5.80;2.00;;;15.80;76.30;;;-142.21;100.00;112049.66;5051858;28;20472;-73
2022/09/28 08:39:46;;;;;;;4.00;2.33;;;15.80;76.30;;;-142.21;100.00;112049.66;5052864;28;20451;-74
2022/09/28 08:42:31;;;;;;;3.53;2.20;;;15.90;76.70;;;-142.21;100.00;112049.66;5052902;28;20505;-71
2022/09/28 08:45:08;;;;;;;2.73;2.20;;;15.90;76.00;;;-142.21;100.00;112049.66;5033199;28;20429;-71
2022/09/28 08:50:38;;;;;;;5.23;2.17;;;15.80;76.70;;;-142.21;100.00;112049.66;5025504;28;20605;-71
2022/09/28 08:53:23;;;;;;;4.17;2.07;;;15.90;77.20;;;-142.21;100.00;112049.66;5053510;28;20424;-71
2022/09/28 08:55:53;;;;;;;4.43;2.20;;;15.90;76.20;;;-142.21;100.00;112049.66;5052545;28;20427;-71
2022/09/28 08:58:29;;;;;;;2.93;2.03;;;15.90;76.20;;;-142.21;100.00;112049.66;5048761;28;20485;-71
2022/09/28 09:00:57;;;;;;;6.73;2.73;;;16.00;76.80;;;-142.21;100.00;112049.66;5041901;28;20452;-72
2022/09/28 09:03:32;;;;;;;4.90;2.80;;;16.00;76.20;;;-142.21;100.00;112049.66;5049748;28;20464;-71
2022/09/28 09:06:17;;;;;;;4.60;2.57;;;16.00;75.50;;;-142.21;100.00;112049.66;5053930;28;20950;-71
2022/09/28 09:09:05;;;;;;;2.63;2.20;;;16.10;76.00;;;-142.21;100.00;112049.66;5034476;28;20460;-72
2022/09/28 09:11:57;;;;;;;5.27;2.57;;;16.20;75.90;;;-142.21;100.00;112049.66;5052671;28;20440;-72
2022/09/28 09:15:11;;;;;;;4.30;2.30;;;16.20;73.80;;;-142.21;100.00;112049.66;5052580;28;20947;-71
2022/09/28 09:17:54;;;;;;;3.43;2.20;;;16.00;73.70;;;-142.21;100.00;112049.66;5049680;28;20512;-72
2022/09/28 09:20:37;;;;;;;6.60;2.40;;;16.10;75.80;;;-142.21;99.42;112049.66;5042580;28;20441;-72
2022/09/28 09:23:19;;;;;;;3.83;2.17;;;16.10;73.40;;;-142.21;96.29;112049.66;5046252;28;20527;-72
2022/09/28 09:25:53;;;;;;;3.57;2.33;;;16.20;71.30;;;-142.21;96.47;112049.66;5032459;28;20532;-72
2022/09/28 09:28:55;;;;;;;3.23;2.20;;;16.20;71.70;;;-142.21;97.25;112049.66;5048956;28;20476;-72
2022/09/28 09:31:53;;;;;;;4.57;2.23;;;16.30;71.50;;;-142.21;96.00;112049.66;5051526;28;20521;-72
2022/09/28 09:34:55;;;;;;;4.23;2.63;;;16.50;70.90;;;-142.21;94.17;112049.66;5050548;28;20843;-74
2022/09/28 09:37:42;;;;;;;4.10;2.10;;;16.60;70.00;;;-142.21;95.63;112049.66;5071918;28;21070;-72
2022/09/28 09:40:29;;;;;;;3.33;2.07;;;16.80;71.30;;;-142.21;92.18;112049.66;5045669;28;20486;-73
2022/09/28 09:43:21;;;;;;;4.10;2.23;;;16.70;68.80;;;-142.21;89.66;112049.66;5051952;28;20432;-72
2022/09/28 09:46:15;;;;;;;3.80;2.00;;;16.80;67.90;;;-142.21;88.02;112049.66;5051616;28;20828;-72
2022/09/28 09:48:54;;;;;;;2.40;1.97;;;16.80;66.80;;;-142.21;88.13;112049.66;5051839;28;20478;-73
2022/09/28 09:51:35;;;;;;;2.43;2.00;;;17.00;66.40;;;-142.21;90.13;112049.66;5052064;28;20519;-72
2022/09/28 09:54:11;;;;;;;3.43;1.70;;;17.10;67.50;;;-142.21;86.38;112049.66;5039921;28;20528;-72
2022/09/28 09:56:47;;;;;;;2.67;1.90;;;17.10;66.20;;;-142.21;89.45;112049.66;5051937;28;20847;-74
2022/09/28 09:59:21;;;;;;;3.30;2.03;;;17.20;67.70;;;-142.21;89.44;112049.66;5051821;28;20468;-73
2022/09/28 10:01:53;;;;;;;3.20;1.90;;;17.40;67.50;;;-142.21;87.97;112049.66;5054304;28;20526;-73
2022/09/28 10:04:29;;;;;;;2.57;1.90;;;17.40;66.10;;;-142.21;87.99;112049.66;5039651;28;20521;-73
2022/09/28 10:07:03;;;;;;;2.67;1.87;;;17.40;66.40;;;-142.21;84.00;112049.66;5050976;28;20515;-72
2022/09/28 10:09:37;;;;;;;3.40;2.07;;;17.50;63.30;;;-142.21;87.30;112049.66;5052018;28;20432;-72
2022/09/28 10:12:11;;;;;;;3.70;2.10;;;17.40;65.70;;;-142.21;84.42;112049.66;5050811;28;20470;-72
2022/09/28 10:14:38;;;;;;;4.93;1.90;;;17.60;64.40;;;-142.21;86.92;112049.66;5050265;28;20444;-73
2022/09/28 10:17:09;;;;;;;2.63;1.90;;;17.60;65.30;;;-142.21;85.88;112049.66;5051172;28;20472;-73
2022/09/28 10:19:38;;;;;;;3.23;1.93;;;17.70;64.90;;;-142.21;84.90;112049.66;5048166;28;20500;-73
2022/09/28 10:22:06;;;;;;;4.23;2.00;;;17.70;64.20;;;-142.21;83.85;112049.66;5051703;28;20550;-72
2022/09/28 10:24:41;;;;;;;4.70;2.10;;;17.50;63.40;;;-142.21;86.54;112049.66;5034875;28;20548;-73
2022/09/28 10:27:15;;;;;;;2.10;1.87;;;17.50;64.80;;;-142.21;87.33;112049.66;5031959;28;20421;-75